sensor_id;sensor_type;location;lat;lon;timestamp;temperature;humidity
5218;DHT22;26539;51.064;6.346;2023-11-19T00:02:08;12.90;99.90
5218;DHT22;26539;51.064;6.346;2023-11-19T00:04:36;12.90;99.90
5218;DHT22;26539;51.064;6.346;2023-11-19T00:07:03;13.00;99.90
5218;DHT22;26539;51.064;6.346;2023-11-19T00:09:30;12.90;99.90
5218;DHT22;26539;51.064;6.346;2023-11-19T00:11:56;13.00;99.90
5218;DHT22;26539;51.064;6.346;2023-11-19T00:14:23;13.00;99.90
5218;DHT22;26539;51.064;6.346;2023-11-19T00:16:49;13.00;99.90
5218;DHT22;26539;51.064;6.346;2023-11-19T00:19:16;13.00;99.90
5218;DHT22;26539;51.064;6.346;2023-11-19T00:21:48;13.00;99.90
5218;DHT22;26539;51.064;6.346;2023-11-19T00:24:16;13.10;99.90
5218;DHT22;26539;51.064;6.346;2023-11-19T00:26:43;13.00;99.90
5218;DHT22;26539;51.064;6.346;2023-11-19T00:29:09;13.10;99.90
5218;DHT22;26539;51.064;6.346;2023-11-19T00:31:39;13.10;99.90
5218;DHT22;26539;51.064;6.346;2023-11-19T00:34:05;13.10;99.90
5218;DHT22;26539;51.064;6.346;2023-11-19T00:36:31;13.10;99.90
5218;DHT22;26539;51.064;6.346;2023-11-19T00:38:57;13.10;99.90
5218;DHT22;26539;51.064;6.346;2023-11-19T00:41:22;13.10;99.50
5218;DHT22;26539;51.064;6.346;2023-11-19T00:43:51;13.10;99.60
5218;DHT22;26539;51.064;6.346;2023-11-19T00:46:16;13.10;99.00
5218;DHT22;26539;51.064;6.346;2023-11-19T00:48:42;13.20;97.70
5218;DHT22;26539;51.064;6.346;2023-11-19T00:51:07;13.20;96.60
5218;DHT22;26539;51.064;6.346;2023-11-19T00:53:33;13.20;95.00
5218;DHT22;26539;51.064;6.346;2023-11-19T00:56:01;13.20;94.50
5218;DHT22;26539;51.064;6.346;2023-11-19T00:58:27;13.20;92.80
5218;DHT22;26539;51.064;6.346;2023-11-19T01:00:52;13.20;92.90
5218;DHT22;26539;51.064;6.346;2023-11-19T01:03:18;13.20;92.80
5218;DHT22;26539;51.064;6.346;2023-11-19T01:05:43;13.20;93.00
5218;DHT22;26539;51.064;6.346;2023-11-19T01:08:10;13.30;93.10
5218;DHT22;26539;51.064;6.346;2023-11-19T01:10:37;13.20;94.20
5218;DHT22;26539;51.064;6.346;2023-11-19T01:13:02;13.30;96.00
5218;DHT22;26539;51.064;6.346;2023-11-19T01:15:31;13.30;95.80
5218;DHT22;26539;51.064;6.346;2023-11-19T01:17:56;13.30;97.00
5218;DHT22;26539;51.064;6.346;2023-11-19T01:20:22;13.30;97.50
5218;DHT22;26539;51.064;6.346;2023-11-19T01:22:47;13.30;98.20
5218;DHT22;26539;51.064;6.346;2023-11-19T01:25:14;13.30;98.90
5218;DHT22;26539;51.064;6.346;2023-11-19T01:27:39;13.30;98.60
5218;DHT22;26539;51.064;6.346;2023-11-19T01:30:05;13.30;98.50
5218;DHT22;26539;51.064;6.346;2023-11-19T01:32:34;13.30;97.70
5218;DHT22;26539;51.064;6.346;2023-11-19T01:35:02;13.40;97.90
5218;DHT22;26539;51.064;6.346;2023-11-19T01:37:27;13.40;97.10
5218;DHT22;26539;51.064;6.346;2023-11-19T01:39:53;13.40;94.80
5218;DHT22;26539;51.064;6.346;2023-11-19T01:42:18;13.40;93.50
5218;DHT22;26539;51.064;6.346;2023-11-19T01:44:57;13.40;93.00
5218;DHT22;26539;51.064;6.346;2023-11-19T01:47:23;13.50;93.10
5218;DHT22;26539;51.064;6.346;2023-11-19T01:49:50;13.50;92.80
5218;DHT22;26539;51.064;6.346;2023-11-19T01:52:15;13.50;91.90
5218;DHT22;26539;51.064;6.346;2023-11-19T01:54:41;13.50;91.40
5218;DHT22;26539;51.064;6.346;2023-11-19T01:57:07;13.60;91.70
5218;DHT22;26539;51.064;6.346;2023-11-19T01:59:34;13.60;90.60
5218;DHT22;26539;51.064;6.346;2023-11-19T02:02:00;13.60;90.30
5218;DHT22;26539;51.064;6.346;2023-11-19T02:04:26;13.60;87.40
5218;DHT22;26539;51.064;6.346;2023-11-19T02:06:54;13.60;86.60
5218;DHT22;26539;51.064;6.346;2023-11-19T02:09:21;13.60;81.60
5218;DHT22;26539;51.064;6.346;2023-11-19T02:11:47;13.60;78.60
5218;DHT22;26539;51.064;6.346;2023-11-19T02:14:17;13.70;78.40
5218;DHT22;26539;51.064;6.346;2023-11-19T02:16:43;13.70;74.70
5218;DHT22;26539;51.064;6.346;2023-11-19T02:19:08;13.70;72.30
5218;DHT22;26539;51.064;6.346;2023-11-19T02:21:36;13.70;70.40
5218;DHT22;26539;51.064;6.346;2023-11-19T02:24:06;13.70;68.90
5218;DHT22;26539;51.064;6.346;2023-11-19T02:26:42;13.70;64.00
5218;DHT22;26539;51.064;6.346;2023-11-19T02:29:09;13.70;59.60
5218;DHT22;26539;51.064;6.346;2023-11-19T02:31:35;13.70;55.90
5218;DHT22;26539;51.064;6.346;2023-11-19T02:34:01;13.60;56.70
5218;DHT22;26539;51.064;6.346;2023-11-19T02:36:27;13.60;57.30
5218;DHT22;26539;51.064;6.346;2023-11-19T02:38:53;13.60;56.80
5218;DHT22;26539;51.064;6.346;2023-11-19T02:41:18;13.60;57.70
5218;DHT22;26539;51.064;6.346;2023-11-19T02:43:44;13.60;54.30
5218;DHT22;26539;51.064;6.346;2023-11-19T02:46:10;13.60;52.40
5218;DHT22;26539;51.064;6.346;2023-11-19T02:48:36;13.60;48.70
5218;DHT22;26539;51.064;6.346;2023-11-19T02:51:02;13.60;45.60
5218;DHT22;26539;51.064;6.346;2023-11-19T02:53:34;13.60;44.00
5218;DHT22;26539;51.064;6.346;2023-11-19T02:56:00;13.60;41.80
5218;DHT22;26539;51.064;6.346;2023-11-19T02:58:37;13.60;43.10
5218;DHT22;26539;51.064;6.346;2023-11-19T03:01:03;13.60;34.90
5218;DHT22;26539;51.064;6.346;2023-11-19T03:03:38;13.70;28.10
5218;DHT22;26539;51.064;6.346;2023-11-19T03:06:06;13.70;21.40
5218;DHT22;26539;51.064;6.346;2023-11-19T03:08:32;13.70;14.90
5218;DHT22;26539;51.064;6.346;2023-11-19T03:10:58;13.70;5.10
5218;DHT22;26539;51.064;6.346;2023-11-19T03:13:24;13.70;1.00
5218;DHT22;26539;51.064;6.346;2023-11-19T03:15:50;13.70;1.00
5218;DHT22;26539;51.064;6.346;2023-11-19T03:18:16;13.80;1.00
5218;DHT22;26539;51.064;6.346;2023-11-19T03:20:42;13.80;1.00
5218;DHT22;26539;51.064;6.346;2023-11-19T03:23:07;13.80;1.00
5218;DHT22;26539;51.064;6.346;2023-11-19T03:25:33;13.80;1.00
5218;DHT22;26539;51.064;6.346;2023-11-19T03:28:00;13.70;1.00
5218;DHT22;26539;51.064;6.346;2023-11-19T03:30:29;13.70;1.00
5218;DHT22;26539;51.064;6.346;2023-11-19T03:32:56;13.70;1.00
5218;DHT22;26539;51.064;6.346;2023-11-19T03:35:22;13.70;1.00
5218;DHT22;26539;51.064;6.346;2023-11-19T03:37:51;13.70;1.00
5218;DHT22;26539;51.064;6.346;2023-11-19T03:40:17;13.70;1.00
5218;DHT22;26539;51.064;6.346;2023-11-19T03:42:44;13.60;1.00
5218;DHT22;26539;51.064;6.346;2023-11-19T03:45:10;13.60;1.00
5218;DHT22;26539;51.064;6.346;2023-11-19T03:47:36;13.60;1.00
5218;DHT22;26539;51.064;6.346;2023-11-19T03:50:02;13.60;1.00
5218;DHT22;26539;51.064;6.346;2023-11-19T03:52:28;13.50;1.00
5218;DHT22;26539;51.064;6.346;2023-11-19T03:54:54;13.50;1.00
5218;DHT22;26539;51.064;6.346;2023-11-19T03:57:23;13.40;1.00
5218;DHT22;26539;51.064;6.346;2023-11-19T03:59:49;13.30;4.00
5218;DHT22;26539;51.064;6.346;2023-11-19T04:02:17;13.30;7.50
5218;DHT22;26539;51.064;6.346;2023-11-19T04:04:43;13.20;12.40
5218;DHT22;26539;51.064;6.346;2023-11-19T04:07:08;13.20;15.10
5218;DHT22;26539;51.064;6.346;2023-11-19T04:09:34;13.20;14.30
5218;DHT22;26539;51.064;6.346;2023-11-19T04:12:00;13.20;11.70
5218;DHT22;26539;51.064;6.346;2023-11-19T04:14:26;13.20;8.90
5218;DHT22;26539;51.064;6.346;2023-11-19T04:16:52;13.10;6.90
5218;DHT22;26539;51.064;6.346;2023-11-19T04:19:18;13.10;6.20
5218;DHT22;26539;51.064;6.346;2023-11-19T04:21:44;13.10;5.00
5218;DHT22;26539;51.064;6.346;2023-11-19T04:24:11;13.10;4.30
5218;DHT22;26539;51.064;6.346;2023-11-19T04:26:44;13.00;2.20
5218;DHT22;26539;51.064;6.346;2023-11-19T04:29:12;13.00;3.00
5218;DHT22;26539;51.064;6.346;2023-11-19T04:31:37;13.00;2.80
5218;DHT22;26539;51.064;6.346;2023-11-19T04:34:03;13.00;2.40
5218;DHT22;26539;51.064;6.346;2023-11-19T04:36:28;13.10;1.00
5218;DHT22;26539;51.064;6.346;2023-11-19T04:38:55;13.10;1.00
5218;DHT22;26539;51.064;6.346;2023-11-19T04:41:20;13.10;1.00
5218;DHT22;26539;51.064;6.346;2023-11-19T04:43:46;13.20;1.00
5218;DHT22;26539;51.064;6.346;2023-11-19T04:46:12;13.20;1.00
5218;DHT22;26539;51.064;6.346;2023-11-19T04:48:37;13.20;1.00
5218;DHT22;26539;51.064;6.346;2023-11-19T04:51:05;13.20;1.00
5218;DHT22;26539;51.064;6.346;2023-11-19T04:53:30;13.20;1.00
5218;DHT22;26539;51.064;6.346;2023-11-19T04:55:56;13.20;1.00
5218;DHT22;26539;51.064;6.346;2023-11-19T04:58:21;13.20;1.00
5218;DHT22;26539;51.064;6.346;2023-11-19T05:00:47;13.10;1.00
5218;DHT22;26539;51.064;6.346;2023-11-19T05:03:12;13.10;1.00
5218;DHT22;26539;51.064;6.346;2023-11-19T05:05:38;13.10;1.00
5218;DHT22;26539;51.064;6.346;2023-11-19T05:08:03;13.10;1.00
5218;DHT22;26539;51.064;6.346;2023-11-19T05:10:29;13.00;1.00
5218;DHT22;26539;51.064;6.346;2023-11-19T05:12:54;13.00;1.00
5218;DHT22;26539;51.064;6.346;2023-11-19T05:15:21;12.90;1.00
5218;DHT22;26539;51.064;6.346;2023-11-19T05:17:47;12.90;1.00
5218;DHT22;26539;51.064;6.346;2023-11-19T05:20:13;12.90;1.00
5218;DHT22;26539;51.064;6.346;2023-11-19T05:22:40;12.80;1.00
5218;DHT22;26539;51.064;6.346;2023-11-19T05:25:06;12.80;1.00
5218;DHT22;26539;51.064;6.346;2023-11-19T05:27:32;12.80;1.00
5218;DHT22;26539;51.064;6.346;2023-11-19T05:29:57;12.80;1.00
5218;DHT22;26539;51.064;6.346;2023-11-19T05:32:23;12.80;1.00
5218;DHT22;26539;51.064;6.346;2023-11-19T05:34:48;12.70;1.00
5218;DHT22;26539;51.064;6.346;2023-11-19T05:37:14;12.70;1.00
5218;DHT22;26539;51.064;6.346;2023-11-19T05:39:39;12.80;1.00
5218;DHT22;26539;51.064;6.346;2023-11-19T05:42:05;12.80;1.00
5218;DHT22;26539;51.064;6.346;2023-11-19T05:44:30;12.80;1.00
5218;DHT22;26539;51.064;6.346;2023-11-19T05:46:56;12.70;1.00
5218;DHT22;26539;51.064;6.346;2023-11-19T05:49:22;12.70;1.00
5218;DHT22;26539;51.064;6.346;2023-11-19T05:51:47;12.70;1.00
5218;DHT22;26539;51.064;6.346;2023-11-19T05:54:13;12.70;1.00
5218;DHT22;26539;51.064;6.346;2023-11-19T05:56:38;12.60;1.00
5218;DHT22;26539;51.064;6.346;2023-11-19T05:59:04;12.70;1.00
5218;DHT22;26539;51.064;6.346;2023-11-19T06:01:35;12.70;1.00
5218;DHT22;26539;51.064;6.346;2023-11-19T06:04:01;12.70;1.00
5218;DHT22;26539;51.064;6.346;2023-11-19T06:06:28;12.70;1.00
5218;DHT22;26539;51.064;6.346;2023-11-19T06:08:54;12.60;1.00
5218;DHT22;26539;51.064;6.346;2023-11-19T06:11:20;12.60;1.00
5218;DHT22;26539;51.064;6.346;2023-11-19T06:13:48;12.60;1.00
5218;DHT22;26539;51.064;6.346;2023-11-19T06:16:15;12.60;1.00
5218;DHT22;26539;51.064;6.346;2023-11-19T06:18:41;12.60;1.00
5218;DHT22;26539;51.064;6.346;2023-11-19T06:21:06;12.50;1.00
5218;DHT22;26539;51.064;6.346;2023-11-19T06:23:32;12.50;1.00
5218;DHT22;26539;51.064;6.346;2023-11-19T06:25:58;12.50;1.00
5218;DHT22;26539;51.064;6.346;2023-11-19T06:28:24;12.50;1.00
5218;DHT22;26539;51.064;6.346;2023-11-19T06:30:50;12.50;1.00
5218;DHT22;26539;51.064;6.346;2023-11-19T06:33:15;12.40;1.00
5218;DHT22;26539;51.064;6.346;2023-11-19T06:35:41;12.40;1.00
5218;DHT22;26539;51.064;6.346;2023-11-19T06:38:06;12.40;1.00
5218;DHT22;26539;51.064;6.346;2023-11-19T06:40:35;12.40;1.00
5218;DHT22;26539;51.064;6.346;2023-11-19T06:43:01;12.40;1.00
5218;DHT22;26539;51.064;6.346;2023-11-19T06:45:29;12.40;1.00
5218;DHT22;26539;51.064;6.346;2023-11-19T06:47:54;12.30;1.00
5218;DHT22;26539;51.064;6.346;2023-11-19T06:50:20;12.30;1.00
5218;DHT22;26539;51.064;6.346;2023-11-19T06:52:46;12.30;1.00
5218;DHT22;26539;51.064;6.346;2023-11-19T06:55:11;12.30;1.00
5218;DHT22;26539;51.064;6.346;2023-11-19T06:57:37;12.30;1.00
5218;DHT22;26539;51.064;6.346;2023-11-19T07:00:03;12.30;1.00
5218;DHT22;26539;51.064;6.346;2023-11-19T07:02:31;12.30;1.00
5218;DHT22;26539;51.064;6.346;2023-11-19T07:04:56;12.30;1.00
5218;DHT22;26539;51.064;6.346;2023-11-19T07:07:22;12.40;1.00
5218;DHT22;26539;51.064;6.346;2023-11-19T07:09:48;12.50;1.00
5218;DHT22;26539;51.064;6.346;2023-11-19T07:12:13;12.50;1.00
5218;DHT22;26539;51.064;6.346;2023-11-19T07:14:39;12.60;1.00
5218;DHT22;26539;51.064;6.346;2023-11-19T07:17:05;12.60;1.00
5218;DHT22;26539;51.064;6.346;2023-11-19T07:19:31;12.60;1.00
5218;DHT22;26539;51.064;6.346;2023-11-19T07:21:57;12.70;1.00
5218;DHT22;26539;51.064;6.346;2023-11-19T07:24:22;12.70;1.00
5218;DHT22;26539;51.064;6.346;2023-11-19T07:26:48;12.80;1.00
5218;DHT22;26539;51.064;6.346;2023-11-19T07:29:17;12.90;1.00
5218;DHT22;26539;51.064;6.346;2023-11-19T07:31:43;13.00;99.90
5218;DHT22;26539;51.064;6.346;2023-11-19T07:34:10;13.10;99.90
5218;DHT22;26539;51.064;6.346;2023-11-19T07:36:36;13.20;99.90
5218;DHT22;26539;51.064;6.346;2023-11-19T07:39:01;13.30;99.90
5218;DHT22;26539;51.064;6.346;2023-11-19T07:41:27;13.30;6.60
5218;DHT22;26539;51.064;6.346;2023-11-19T07:43:53;13.50;1.00
5218;DHT22;26539;51.064;6.346;2023-11-19T07:46:19;13.50;1.00
5218;DHT22;26539;51.064;6.346;2023-11-19T07:48:45;13.70;99.90
5218;DHT22;26539;51.064;6.346;2023-11-19T07:51:12;14.20;9.20
5218;DHT22;26539;51.064;6.346;2023-11-19T07:53:38;14.50;59.90
5218;DHT22;26539;51.064;6.346;2023-11-19T07:56:05;15.00;99.90
5218;DHT22;26539;51.064;6.346;2023-11-19T07:58:30;15.30;1.00
5218;DHT22;26539;51.064;6.346;2023-11-19T08:00:56;15.40;1.00
5218;DHT22;26539;51.064;6.346;2023-11-19T08:03:21;15.50;99.90
5218;DHT22;26539;51.064;6.346;2023-11-19T08:05:47;15.50;99.90
5218;DHT22;26539;51.064;6.346;2023-11-19T08:08:13;15.90;76.00
5218;DHT22;26539;51.064;6.346;2023-11-19T08:10:39;16.40;1.00
5218;DHT22;26539;51.064;6.346;2023-11-19T08:13:05;17.10;99.90
5218;DHT22;26539;51.064;6.346;2023-11-19T08:15:31;17.80;1.00
5218;DHT22;26539;51.064;6.346;2023-11-19T08:17:56;18.50;1.00
5218;DHT22;26539;51.064;6.346;2023-11-19T08:20:22;19.10;1.00
5218;DHT22;26539;51.064;6.346;2023-11-19T08:22:48;19.40;1.00
5218;DHT22;26539;51.064;6.346;2023-11-19T08:25:14;19.80;1.00
5218;DHT22;26539;51.064;6.346;2023-11-19T08:27:40;20.20;1.00
5218;DHT22;26539;51.064;6.346;2023-11-19T08:30:06;20.50;1.00
5218;DHT22;26539;51.064;6.346;2023-11-19T08:32:32;20.70;1.00
5218;DHT22;26539;51.064;6.346;2023-11-19T08:34:58;21.00;1.00
5218;DHT22;26539;51.064;6.346;2023-11-19T08:37:23;21.40;99.90
5218;DHT22;26539;51.064;6.346;2023-11-19T08:39:49;21.40;99.90
5218;DHT22;26539;51.064;6.346;2023-11-19T08:42:16;21.70;99.90
5218;DHT22;26539;51.064;6.346;2023-11-19T08:44:41;21.80;99.90
5218;DHT22;26539;51.064;6.346;2023-11-19T08:47:09;22.00;99.90
5218;DHT22;26539;51.064;6.346;2023-11-19T08:49:35;22.30;99.90
5218;DHT22;26539;51.064;6.346;2023-11-19T08:52:00;22.40;99.90
5218;DHT22;26539;51.064;6.346;2023-11-19T08:54:26;22.40;99.90
5218;DHT22;26539;51.064;6.346;2023-11-19T08:56:52;22.50;99.90
5218;DHT22;26539;51.064;6.346;2023-11-19T08:59:17;22.80;99.90
5218;DHT22;26539;51.064;6.346;2023-11-19T09:01:44;22.80;99.90
5218;DHT22;26539;51.064;6.346;2023-11-19T09:04:09;22.90;99.90
5218;DHT22;26539;51.064;6.346;2023-11-19T09:06:36;22.80;99.90
5218;DHT22;26539;51.064;6.346;2023-11-19T09:09:02;22.20;99.90
5218;DHT22;26539;51.064;6.346;2023-11-19T09:11:29;21.70;99.90
5218;DHT22;26539;51.064;6.346;2023-11-19T09:13:54;21.20;99.90
5218;DHT22;26539;51.064;6.346;2023-11-19T09:16:20;20.70;99.90
5218;DHT22;26539;51.064;6.346;2023-11-19T09:18:45;20.30;99.90
5218;DHT22;26539;51.064;6.346;2023-11-19T09:21:11;19.90;99.90
5218;DHT22;26539;51.064;6.346;2023-11-19T09:23:37;19.60;99.90
5218;DHT22;26539;51.064;6.346;2023-11-19T09:26:05;19.40;99.90
5218;DHT22;26539;51.064;6.346;2023-11-19T09:28:31;19.20;99.90
5218;DHT22;26539;51.064;6.346;2023-11-19T09:30:56;18.90;99.90
5218;DHT22;26539;51.064;6.346;2023-11-19T09:33:25;18.60;99.90
5218;DHT22;26539;51.064;6.346;2023-11-19T09:35:51;18.40;99.90
5218;DHT22;26539;51.064;6.346;2023-11-19T09:38:17;18.00;99.90
5218;DHT22;26539;51.064;6.346;2023-11-19T09:40:43;17.90;99.90
5218;DHT22;26539;51.064;6.346;2023-11-19T09:43:08;17.60;99.90
5218;DHT22;26539;51.064;6.346;2023-11-19T09:45:50;17.40;1.00
5218;DHT22;26539;51.064;6.346;2023-11-19T09:48:19;17.40;1.00
5218;DHT22;26539;51.064;6.346;2023-11-19T09:50:48;17.20;1.00
5218;DHT22;26539;51.064;6.346;2023-11-19T09:53:15;17.10;1.00
5218;DHT22;26539;51.064;6.346;2023-11-19T09:55:48;17.10;1.00
5218;DHT22;26539;51.064;6.346;2023-11-19T09:58:14;17.00;1.00
5218;DHT22;26539;51.064;6.346;2023-11-19T10:00:40;17.00;1.00
5218;DHT22;26539;51.064;6.346;2023-11-19T10:03:07;17.00;1.00
5218;DHT22;26539;51.064;6.346;2023-11-19T10:05:35;16.90;1.00
5218;DHT22;26539;51.064;6.346;2023-11-19T10:08:02;16.80;1.00
5218;DHT22;26539;51.064;6.346;2023-11-19T10:10:28;16.80;1.00
5218;DHT22;26539;51.064;6.346;2023-11-19T10:12:55;16.90;1.00
5218;DHT22;26539;51.064;6.346;2023-11-19T10:15:21;16.80;1.00
5218;DHT22;26539;51.064;6.346;2023-11-19T10:17:48;16.70;1.00
5218;DHT22;26539;51.064;6.346;2023-11-19T10:20:14;16.60;1.00
5218;DHT22;26539;51.064;6.346;2023-11-19T10:22:39;16.60;1.00
5218;DHT22;26539;51.064;6.346;2023-11-19T10:27:52;16.80;1.00
5218;DHT22;26539;51.064;6.346;2023-11-19T10:30:25;16.70;1.00
5218;DHT22;26539;51.064;6.346;2023-11-19T10:33:10;16.70;1.00
5218;DHT22;26539;51.064;6.346;2023-11-19T10:35:54;16.80;1.00
5218;DHT22;26539;51.064;6.346;2023-11-19T10:38:20;16.60;1.00
5218;DHT22;26539;51.064;6.346;2023-11-19T10:40:47;16.70;1.00
5218;DHT22;26539;51.064;6.346;2023-11-19T10:43:13;16.80;1.00
5218;DHT22;26539;51.064;6.346;2023-11-19T10:45:39;16.70;1.00
5218;DHT22;26539;51.064;6.346;2023-11-19T10:48:06;16.40;1.00
5218;DHT22;26539;51.064;6.346;2023-11-19T10:50:39;16.30;1.00
5218;DHT22;26539;51.064;6.346;2023-11-19T10:53:06;16.50;5.90
5218;DHT22;26539;51.064;6.346;2023-11-19T10:55:34;16.80;1.00
5218;DHT22;26539;51.064;6.346;2023-11-19T10:58:07;16.80;1.00
5218;DHT22;26539;51.064;6.346;2023-11-19T11:00:54;17.00;1.00
5218;DHT22;26539;51.064;6.346;2023-11-19T11:03:24;17.90;1.00
5218;DHT22;26539;51.064;6.346;2023-11-19T11:05:53;18.80;1.00
5218;DHT22;26539;51.064;6.346;2023-11-19T11:08:20;19.60;99.90
5218;DHT22;26539;51.064;6.346;2023-11-19T11:13:17;21.10;99.90
5218;DHT22;26539;51.064;6.346;2023-11-19T11:15:44;21.60;99.90
5218;DHT22;26539;51.064;6.346;2023-11-19T11:18:12;22.10;99.90
5218;DHT22;26539;51.064;6.346;2023-11-19T11:20:38;22.30;99.90
5218;DHT22;26539;51.064;6.346;2023-11-19T11:34:58;22.00;99.90
5218;DHT22;26539;51.064;6.346;2023-11-19T11:37:33;21.20;99.90
5218;DHT22;26539;51.064;6.346;2023-11-19T11:40:02;20.60;99.90
5218;DHT22;26539;51.064;6.346;2023-11-19T11:42:38;20.30;99.90
5218;DHT22;26539;51.064;6.346;2023-11-19T11:50:09;20.10;99.90
5218;DHT22;26539;51.064;6.346;2023-11-19T11:55:27;19.70;99.90
5218;DHT22;26539;51.064;6.346;2023-11-19T11:57:53;19.90;99.90
5218;DHT22;26539;51.064;6.346;2023-11-19T12:03:01;19.40;99.90
5218;DHT22;26539;51.064;6.346;2023-11-19T12:05:27;19.40;99.90
5218;DHT22;26539;51.064;6.346;2023-11-19T12:07:55;19.90;99.90
5218;DHT22;26539;51.064;6.346;2023-11-19T12:10:31;19.70;99.90
5218;DHT22;26539;51.064;6.346;2023-11-19T12:13:05;19.20;99.90
5218;DHT22;26539;51.064;6.346;2023-11-19T12:15:32;18.60;99.90
5218;DHT22;26539;51.064;6.346;2023-11-19T12:17:58;18.30;99.90
5218;DHT22;26539;51.064;6.346;2023-11-19T12:20:25;17.80;99.90
5218;DHT22;26539;51.064;6.346;2023-11-19T12:22:54;17.30;99.90
5218;DHT22;26539;51.064;6.346;2023-11-19T12:25:20;17.10;99.90
5218;DHT22;26539;51.064;6.346;2023-11-19T12:27:52;17.00;1.00
5218;DHT22;26539;51.064;6.346;2023-11-19T12:30:24;17.00;1.00
5218;DHT22;26539;51.064;6.346;2023-11-19T12:32:50;17.10;1.00
5218;DHT22;26539;51.064;6.346;2023-11-19T12:35:16;17.20;1.00
5218;DHT22;26539;51.064;6.346;2023-11-19T12:37:45;17.30;1.00
5218;DHT22;26539;51.064;6.346;2023-11-19T12:40:14;17.60;1.00
5218;DHT22;26539;51.064;6.346;2023-11-19T12:42:39;17.70;1.00
5218;DHT22;26539;51.064;6.346;2023-11-19T12:45:06;17.90;1.00
5218;DHT22;26539;51.064;6.346;2023-11-19T12:47:33;18.10;1.00
5218;DHT22;26539;51.064;6.346;2023-11-19T12:49:59;18.50;99.90
5218;DHT22;26539;51.064;6.346;2023-11-19T12:52:24;18.90;99.90
5218;DHT22;26539;51.064;6.346;2023-11-19T12:54:50;19.10;99.90
5218;DHT22;26539;51.064;6.346;2023-11-19T12:57:17;19.40;99.90
5218;DHT22;26539;51.064;6.346;2023-11-19T12:59:55;19.60;99.90
5218;DHT22;26539;51.064;6.346;2023-11-19T13:02:23;19.70;99.90
5218;DHT22;26539;51.064;6.346;2023-11-19T13:05:40;19.80;99.90
5218;DHT22;26539;51.064;6.346;2023-11-19T13:08:09;19.70;99.90
5218;DHT22;26539;51.064;6.346;2023-11-19T13:10:53;19.60;99.90
5218;DHT22;26539;51.064;6.346;2023-11-19T13:13:21;19.80;99.90
5218;DHT22;26539;51.064;6.346;2023-11-19T13:15:47;19.80;99.90
5218;DHT22;26539;51.064;6.346;2023-11-19T13:18:16;19.80;99.90
5218;DHT22;26539;51.064;6.346;2023-11-19T13:20:42;19.80;99.90
5218;DHT22;26539;51.064;6.346;2023-11-19T13:23:10;19.80;99.90
5218;DHT22;26539;51.064;6.346;2023-11-19T13:25:40;19.70;99.90
5218;DHT22;26539;51.064;6.346;2023-11-19T13:28:05;19.50;99.90
5218;DHT22;26539;51.064;6.346;2023-11-19T13:30:31;19.10;99.90
5218;DHT22;26539;51.064;6.346;2023-11-19T13:32:56;18.80;99.90
5218;DHT22;26539;51.064;6.346;2023-11-19T13:35:22;18.40;99.90
5218;DHT22;26539;51.064;6.346;2023-11-19T13:37:48;17.80;99.90
5218;DHT22;26539;51.064;6.346;2023-11-19T13:40:14;17.40;99.90
5218;DHT22;26539;51.064;6.346;2023-11-19T13:42:41;17.00;99.90
5218;DHT22;26539;51.064;6.346;2023-11-19T13:45:11;16.60;1.00
5218;DHT22;26539;51.064;6.346;2023-11-19T13:47:39;16.40;1.00
5218;DHT22;26539;51.064;6.346;2023-11-19T13:50:07;16.20;1.00
5218;DHT22;26539;51.064;6.346;2023-11-19T13:52:34;16.00;1.00
5218;DHT22;26539;51.064;6.346;2023-11-19T13:55:00;15.90;1.00
5218;DHT22;26539;51.064;6.346;2023-11-19T13:57:26;15.70;38.90
5218;DHT22;26539;51.064;6.346;2023-11-19T13:59:51;15.60;99.90
5218;DHT22;26539;51.064;6.346;2023-11-19T14:02:17;15.40;99.90
5218;DHT22;26539;51.064;6.346;2023-11-19T14:04:42;15.30;1.00
5218;DHT22;26539;51.064;6.346;2023-11-19T14:07:08;15.30;1.00
5218;DHT22;26539;51.064;6.346;2023-11-19T14:09:33;15.20;1.00
5218;DHT22;26539;51.064;6.346;2023-11-19T14:11:59;15.20;1.00
5218;DHT22;26539;51.064;6.346;2023-11-19T14:14:24;15.10;1.00
5218;DHT22;26539;51.064;6.346;2023-11-19T14:16:50;15.00;1.00
5218;DHT22;26539;51.064;6.346;2023-11-19T14:19:15;15.00;99.90
5218;DHT22;26539;51.064;6.346;2023-11-19T14:21:41;15.30;99.90
5218;DHT22;26539;51.064;6.346;2023-11-19T14:24:07;15.70;99.90
5218;DHT22;26539;51.064;6.346;2023-11-19T14:26:32;15.90;1.00
5218;DHT22;26539;51.064;6.346;2023-11-19T14:28:58;16.00;1.00
5218;DHT22;26539;51.064;6.346;2023-11-19T14:31:23;16.00;1.00
5218;DHT22;26539;51.064;6.346;2023-11-19T14:33:52;16.00;1.00
5218;DHT22;26539;51.064;6.346;2023-11-19T14:36:18;15.80;1.00
5218;DHT22;26539;51.064;6.346;2023-11-19T14:38:44;15.50;1.00
5218;DHT22;26539;51.064;6.346;2023-11-19T14:41:09;15.30;30.80
5218;DHT22;26539;51.064;6.346;2023-11-19T14:43:35;15.00;99.90
5218;DHT22;26539;51.064;6.346;2023-11-19T14:46:00;14.90;1.00
5218;DHT22;26539;51.064;6.346;2023-11-19T14:48:28;14.80;1.00
5218;DHT22;26539;51.064;6.346;2023-11-19T14:50:54;14.70;99.90
5218;DHT22;26539;51.064;6.346;2023-11-19T14:53:19;14.60;99.90
5218;DHT22;26539;51.064;6.346;2023-11-19T14:55:45;14.50;1.00
5218;DHT22;26539;51.064;6.346;2023-11-19T14:58:10;14.40;99.90
5218;DHT22;26539;51.064;6.346;2023-11-19T15:00:36;14.30;99.90
5218;DHT22;26539;51.064;6.346;2023-11-19T15:03:01;14.20;1.00
5218;DHT22;26539;51.064;6.346;2023-11-19T15:05:27;14.20;35.30
5218;DHT22;26539;51.064;6.346;2023-11-19T15:07:54;14.20;99.90
5218;DHT22;26539;51.064;6.346;2023-11-19T15:10:21;14.10;1.00
5218;DHT22;26539;51.064;6.346;2023-11-19T15:12:46;14.10;70.40
5218;DHT22;26539;51.064;6.346;2023-11-19T15:15:12;14.00;99.90
5218;DHT22;26539;51.064;6.346;2023-11-19T15:17:41;14.00;99.90
5218;DHT22;26539;51.064;6.346;2023-11-19T15:20:07;13.90;99.90
5218;DHT22;26539;51.064;6.346;2023-11-19T15:22:33;13.90;99.90
5218;DHT22;26539;51.064;6.346;2023-11-19T15:24:58;13.90;99.90
5218;DHT22;26539;51.064;6.346;2023-11-19T15:27:24;13.80;1.00
5218;DHT22;26539;51.064;6.346;2023-11-19T15:29:49;13.80;1.00
5218;DHT22;26539;51.064;6.346;2023-11-19T15:32:15;13.80;1.00
5218;DHT22;26539;51.064;6.346;2023-11-19T15:34:40;13.70;1.00
5218;DHT22;26539;51.064;6.346;2023-11-19T15:37:12;13.60;1.00
5218;DHT22;26539;51.064;6.346;2023-11-19T15:39:40;13.60;1.00
5218;DHT22;26539;51.064;6.346;2023-11-19T15:42:06;13.50;99.90
5218;DHT22;26539;51.064;6.346;2023-11-19T15:44:31;13.50;40.90
5218;DHT22;26539;51.064;6.346;2023-11-19T15:46:57;13.50;76.60
5218;DHT22;26539;51.064;6.346;2023-11-19T15:49:22;13.50;99.90
5218;DHT22;26539;51.064;6.346;2023-11-19T15:51:48;13.50;1.00
5218;DHT22;26539;51.064;6.346;2023-11-19T15:54:13;13.40;1.00
5218;DHT22;26539;51.064;6.346;2023-11-19T15:56:39;13.40;1.00
5218;DHT22;26539;51.064;6.346;2023-11-19T15:59:04;13.40;1.00
5218;DHT22;26539;51.064;6.346;2023-11-19T16:01:30;13.40;1.00
5218;DHT22;26539;51.064;6.346;2023-11-19T16:03:56;13.40;99.90
5218;DHT22;26539;51.064;6.346;2023-11-19T16:06:22;13.40;99.90
5218;DHT22;26539;51.064;6.346;2023-11-19T16:08:48;13.40;74.20
5218;DHT22;26539;51.064;6.346;2023-11-19T16:11:15;13.40;99.90
5218;DHT22;26539;51.064;6.346;2023-11-19T16:13:40;13.40;99.90
5218;DHT22;26539;51.064;6.346;2023-11-19T16:16:06;13.40;99.90
5218;DHT22;26539;51.064;6.346;2023-11-19T16:18:31;13.40;1.00
5218;DHT22;26539;51.064;6.346;2023-11-19T16:20:57;13.40;1.00